Time;durP1;ratioP1;P1;durP2;ratioP2;P2;SDS_P1;SDS_P2;PMS_P1;PMS_P2;Temp;Humidity;BMP_temperature;BMP_pressure;BME280_temperature;BME280_humidity;BME280_pressure;Samples;Min_cycle;Max_cycle;Signal;HPM_P1;HPM_P2
2022/08/25 00:00:16;;;;;;;3.58;2.25;;;;;;;;;;5110990;28;20278;-76
2022/08/25 00:02:43;;;;;;;3.13;2.60;;;;;;;;;;5102590;28;20677;-74
2022/08/25 00:05:10;;;;;;;2.90;2.20;;;;;;;;;;5092244;28;20254;-74
2022/08/25 00:07:37;;;;;;;8.68;2.83;;;;;;;;;;5111168;28;20294;-74
2022/08/25 00:10:05;;;;;;;3.70;2.30;;;;;;;;;;5111190;28;20233;-74
2022/08/25 00:12:32;;;;;;;3.22;2.53;;;;;;;;;;5111345;28;20241;-75
2022/08/25 00:15:00;;;;;;;3.10;2.50;;;;;;;;;;5111643;28;20258;-75
2022/08/25 00:17:28;;;;;;;2.95;2.35;;;;;;;;;;5109753;28;20237;-75
2022/08/25 00:19:55;;;;;;;2.40;2.20;;;;;;;;;;5111189;28;20673;-75
2022/08/25 00:22:22;;;;;;;2.90;2.30;;;;;;;;;;5101274;28;20195;-75
2022/08/25 00:24:49;;;;;;;3.03;2.13;;;;;;;;;;5085786;28;20310;-74
2022/08/25 00:27:16;;;;;;;4.47;2.17;;;;;;;;;;5101994;28;20244;-75
2022/08/25 00:29:44;;;;;;;2.70;2.50;;;;;;;;;;5111012;28;20246;-75
2022/08/25 00:32:12;;;;;;;2.85;2.60;;;;;;;;;;5111423;28;20209;-75
2022/08/25 00:34:40;;;;;;;4.47;2.70;;;;;;;;;;5111064;28;20232;-74
2022/08/25 00:37:08;;;;;;;5.65;2.65;;;;;;;;;;5102316;28;20752;-75
2022/08/25 00:39:36;;;;;;;2.97;2.15;;;;;;;;;;5095453;28;20200;-75
2022/08/25 00:42:03;;;;;;;3.25;2.33;;;;;;;;;;5098748;28;20219;-74
2022/08/25 00:44:32;;;;;;;2.55;2.13;;;;;;;;;;5111178;28;20278;-74
2022/08/25 00:47:01;;;;;;;11.73;4.07;;;;;;;;;;5111359;28;20610;-75
2022/08/25 00:49:31;;;;;;;11.85;3.70;;;;;;;;;;5114044;28;20237;-75
2022/08/25 00:52:00;;;;;;;6.43;3.53;;;;;;;;;;5114944;28;20252;-75
2022/08/25 00:54:28;;;;;;;5.88;3.50;;;;;;;;;;5095009;28;20290;-74
2022/08/25 00:56:57;;;;;;;5.70;3.65;;;;;;;;;;5104657;28;20233;-74
2022/08/25 00:59:25;;;;;;;7.65;3.88;;;;;;;;;;5112192;28;21053;-74
2022/08/25 01:01:53;;;;;;;5.47;3.67;;;;;;;;;;5115030;28;20197;-75
2022/08/25 01:04:20;;;;;;;5.30;3.72;;;;;;;;;;5114231;28;20225;-75
2022/08/25 01:06:49;;;;;;;4.20;3.70;;;;;;;;;;5114526;28;20625;-74
2022/08/25 01:09:17;;;;;;;5.75;3.30;;;;;;;;;;5111837;28;20665;-75
2022/08/25 01:11:45;;;;;;;5.50;3.40;;;;;;;;;;5113228;28;20233;-75
2022/08/25 01:14:12;;;;;;;4.32;3.92;;;;;;;;;;5102040;28;20230;-75
2022/08/25 01:16:40;;;;;;;4.40;3.80;;;;;;;;;;5113326;28;20280;-75
2022/08/25 01:19:08;;;;;;;6.38;3.47;;;;;;;;;;5114370;28;20229;-75
2022/08/25 01:21:41;;;;;;;6.05;4.15;;;;;;;;;;5103797;28;20234;-75
2022/08/25 01:24:10;;;;;;;5.47;4.03;;;;;;;;;;5094060;28;20254;-74
2022/08/25 01:26:37;;;;;;;4.97;4.00;;;;;;;;;;5103828;28;20284;-74
2022/08/25 01:29:21;;;;;;;5.35;4.25;;;;;;;;;;5114051;28;20289;-75
2022/08/25 01:31:48;;;;;;;8.38;3.97;;;;;;;;;;5113072;28;20333;-75
2022/08/25 01:34:16;;;;;;;5.15;3.72;;;;;;;;;;5114224;28;20217;-75
2022/08/25 01:36:45;;;;;;;7.00;3.95;;;;;;;;;;5109105;28;20623;-74
2022/08/25 01:39:13;;;;;;;5.82;4.25;;;;;;;;;;5089321;28;20288;-75
2022/08/25 01:41:42;;;;;;;6.07;4.78;;;;;;;;;;5092009;28;20317;-75
2022/08/25 01:44:09;;;;;;;8.85;4.93;;;;;;;;;;5093454;28;20327;-75
2022/08/25 01:46:37;;;;;;;5.22;4.72;;;;;;;;;;5093380;28;20207;-75
2022/08/25 01:49:05;;;;;;;6.30;4.80;;;;;;;;;;5094022;28;20707;-75
2022/08/25 01:51:34;;;;;;;4.88;4.47;;;;;;;;;;5093442;28;20289;-75
2022/08/25 01:54:03;;;;;;;7.55;4.93;;;;;;;;;;5093472;28;20627;-75
2022/08/25 01:56:30;;;;;;;7.35;5.00;;;;;;;;;;5092611;28;20233;-75
2022/08/25 01:58:58;;;;;;;7.50;4.90;;;;;;;;;;5107810;28;20224;-74
2022/08/25 02:01:25;;;;;;;7.00;4.35;;;;;;;;;;5112188;28;20251;-75
2022/08/25 02:03:54;;;;;;;11.18;4.75;;;;;;;;;;5095874;28;20631;-75
2022/08/25 02:06:22;;;;;;;8.05;5.32;;;;;;;;;;5098308;28;20700;-75
2022/08/25 02:08:51;;;;;;;5.75;4.97;;;;;;;;;;5113220;28;20236;-75
2022/08/25 02:11:22;;;;;;;8.02;5.57;;;;;;;;;;5112461;28;20289;-74
2022/08/25 02:13:51;;;;;;;6.95;5.75;;;;;;;;;;5113441;28;20201;-75
2022/08/25 02:16:20;;;;;;;11.50;6.75;;;;;;;;;;5112971;28;20201;-74
2022/08/25 02:18:47;;;;;;;8.43;7.45;;;;;;;;;;5111710;28;20202;-75
2022/08/25 02:21:15;;;;;;;10.52;9.10;;;;;;;;;;5113100;28;20198;-75
2022/08/25 02:23:42;;;;;;;13.13;9.55;;;;;;;;;;5113177;28;20242;-75
2022/08/25 02:26:09;;;;;;;15.95;13.38;;;;;;;;;;5084244;28;20257;-75
2022/08/25 02:28:38;;;;;;;17.73;13.95;;;;;;;;;;5102135;28;20281;-74
2022/08/25 02:31:06;;;;;;;22.98;15.90;;;;;;;;;;5112975;28;20198;-74
2022/08/25 02:33:33;;;;;;;20.25;15.88;;;;;;;;;;5103068;28;20289;-75
2022/08/25 02:36:00;;;;;;;23.52;17.55;;;;;;;;;;5111680;28;20217;-74
2022/08/25 02:38:28;;;;;;;25.30;17.60;;;;;;;;;;5091850;28;20218;-74
2022/08/25 02:40:56;;;;;;;26.45;18.88;;;;;;;;;;5092308;28;20394;-75
2022/08/25 02:43:23;;;;;;;24.67;18.80;;;;;;;;;;5104946;28;20247;-75
2022/08/25 02:45:52;;;;;;;27.08;19.48;;;;;;;;;;5112086;28;20225;-75
2022/08/25 02:48:20;;;;;;;25.27;19.10;;;;;;;;;;5112160;28;20240;-75
2022/08/25 02:50:48;;;;;;;26.05;18.77;;;;;;;;;;5112753;28;20264;-74
2022/08/25 02:53:15;;;;;;;28.75;19.45;;;;;;;;;;5112627;28;20266;-75
2022/08/25 02:55:43;;;;;;;27.42;19.65;;;;;;;;;;5112168;28;20284;-75
2022/08/25 02:58:10;;;;;;;28.30;20.40;;;;;;;;;;5107176;28;20218;-75
2022/08/25 03:00:38;;;;;;;26.48;19.42;;;;;;;;;;5091756;28;20234;-75
2022/08/25 03:03:06;;;;;;;26.48;19.60;;;;;;;;;;5100898;28;20637;-74
2022/08/25 03:05:34;;;;;;;26.50;18.85;;;;;;;;;;5111891;28;20221;-74
2022/08/25 03:08:01;;;;;;;28.70;18.63;;;;;;;;;;5111753;28;20209;-74
2022/08/25 03:10:29;;;;;;;23.95;17.90;;;;;;;;;;5110403;28;20225;-74
2022/08/25 03:12:56;;;;;;;24.35;18.10;;;;;;;;;;5111944;28;20229;-75
2022/08/25 03:15:26;;;;;;;24.00;17.55;;;;;;;;;;5111751;28;20255;-75
2022/08/25 03:17:53;;;;;;;24.83;17.65;;;;;;;;;;5104587;28;20265;-75
2022/08/25 03:20:22;;;;;;;21.70;16.85;;;;;;;;;;5109022;28;20756;-74
2022/08/25 03:22:49;;;;;;;22.33;16.67;;;;;;;;;;5106707;28;20230;-75
2022/08/25 03:28:02;;;;;;;21.10;15.32;;;;;;;;;;5106865;28;20196;-75
2022/08/25 03:30:29;;;;;;;19.75;14.48;;;;;;;;;;5091940;28;20612;-75
2022/08/25 03:32:56;;;;;;;19.38;13.90;;;;;;;;;;5092130;28;20230;-75
2022/08/25 03:35:25;;;;;;;18.02;12.82;;;;;;;;;;5110149;28;20198;-75
2022/08/25 03:37:55;;;;;;;20.77;12.95;;;;;;;;;;5095830;28;20671;-75
2022/08/25 03:40:23;;;;;;;18.90;12.70;;;;;;;;;;5111540;28;20272;-75
2022/08/25 03:42:50;;;;;;;19.60;11.77;;;;;;;;;;5111538;28;20255;-74
2022/08/25 03:45:18;;;;;;;15.93;10.70;;;;;;;;;;5111738;28;20265;-75
2022/08/25 03:47:47;;;;;;;15.40;10.10;;;;;;;;;;5102917;28;20199;-75
2022/08/25 03:50:15;;;;;;;14.27;9.20;;;;;;;;;;5090910;28;20737;-74
2022/08/25 03:52:44;;;;;;;12.63;8.35;;;;;;;;;;5095199;28;20201;-75
2022/08/25 03:55:13;;;;;;;13.02;8.70;;;;;;;;;;5110210;28;20284;-74
2022/08/25 03:57:40;;;;;;;13.65;8.38;;;;;;;;;;5102264;28;20617;-75
2022/08/25 04:00:09;;;;;;;16.83;8.57;;;;;;;;;;5111365;28;20284;-75
2022/08/25 04:02:36;;;;;;;12.73;8.43;;;;;;;;;;5110188;28;20197;-75
2022/08/25 04:05:03;;;;;;;13.68;8.25;;;;;;;;;;5090662;28;20318;-75
2022/08/25 04:07:30;;;;;;;16.08;8.25;;;;;;;;;;5107734;28;20319;-75
2022/08/25 04:09:59;;;;;;;16.23;8.02;;;;;;;;;;5111711;28;20232;-74
2022/08/25 04:12:26;;;;;;;12.55;7.38;;;;;;;;;;5111432;28;20241;-74
2022/08/25 04:14:53;;;;;;;14.55;7.72;;;;;;;;;;5111478;28;20280;-74
2022/08/25 04:17:21;;;;;;;19.13;7.45;;;;;;;;;;5106628;28;20228;-74
2022/08/25 04:19:49;;;;;;;14.25;7.38;;;;;;;;;;5111642;28;20194;-74
2022/08/25 04:22:16;;;;;;;15.88;6.60;;;;;;;;;;5109721;28;20551;-75
2022/08/25 04:24:44;;;;;;;14.50;6.47;;;;;;;;;;5095281;28;20230;-74
2022/08/25 04:27:12;;;;;;;15.05;6.75;;;;;;;;;;5096761;28;20237;-75
2022/08/25 04:29:39;;;;;;;14.70;6.72;;;;;;;;;;5107244;28;20292;-74
2022/08/25 04:32:07;;;;;;;14.98;6.95;;;;;;;;;;5115360;28;20645;-74
2022/08/25 04:34:34;;;;;;;13.07;6.47;;;;;;;;;;5108761;28;20252;-74
2022/08/25 04:37:02;;;;;;;13.85;6.60;;;;;;;;;;5105324;28;20293;-74
2022/08/25 04:39:30;;;;;;;14.18;6.40;;;;;;;;;;5080123;28;20203;-74
2022/08/25 04:41:59;;;;;;;15.30;6.95;;;;;;;;;;5098464;28;20285;-74
2022/08/25 04:44:27;;;;;;;12.35;6.90;;;;;;;;;;5114829;28;20649;-74
2022/08/25 04:46:55;;;;;;;15.82;7.63;;;;;;;;;;5115169;28;20316;-74
2022/08/25 04:49:22;;;;;;;11.13;6.70;;;;;;;;;;5113392;28;20192;-74
2022/08/25 04:51:49;;;;;;;14.52;7.63;;;;;;;;;;5114861;28;20237;-75
2022/08/25 04:54:20;;;;;;;15.52;7.50;;;;;;;;;;5105294;28;20198;-74
2022/08/25 04:56:48;;;;;;;14.88;7.82;;;;;;;;;;5096468;28;20210;-74
2022/08/25 04:59:16;;;;;;;13.90;7.82;;;;;;;;;;5098407;28;20222;-74
2022/08/25 05:01:45;;;;;;;15.35;9.07;;;;;;;;;;5094105;28;20753;-75
2022/08/25 05:04:13;;;;;;;19.02;8.73;;;;;;;;;;5094579;28;20224;-75
2022/08/25 05:06:40;;;;;;;16.75;8.90;;;;;;;;;;5100881;28;20245;-75
2022/08/25 05:09:08;;;;;;;15.02;9.00;;;;;;;;;;5094265;28;20237;-74
2022/08/25 05:11:35;;;;;;;16.67;9.05;;;;;;;;;;5094141;28;20241;-74
2022/08/25 05:14:03;;;;;;;16.65;9.55;;;;;;;;;;5090595;28;20234;-74
2022/08/25 05:16:30;;;;;;;14.48;9.70;;;;;;;;;;5074152;28;20264;-74
2022/08/25 05:18:59;;;;;;;16.23;9.52;;;;;;;;;;5073584;28;20290;-74
2022/08/25 05:21:27;;;;;;;15.63;10.00;;;;;;;;;;5106077;28;20281;-74
2022/08/25 05:23:56;;;;;;;12.98;9.75;;;;;;;;;;5088817;28;20199;-75
2022/08/25 05:26:24;;;;;;;14.07;9.75;;;;;;;;;;5117483;27;20218;-75
2022/08/25 05:28:52;;;;;;;14.88;9.77;;;;;;;;;;5100907;28;20297;-75
2022/08/25 05:31:19;;;;;;;16.30;10.00;;;;;;;;;;5091221;28;20234;-74
2022/08/25 05:33:47;;;;;;;17.13;9.80;;;;;;;;;;5095375;28;20229;-74
2022/08/25 05:36:17;;;;;;;14.35;9.48;;;;;;;;;;5096032;28;20294;-75
2022/08/25 05:38:44;;;;;;;16.15;8.98;;;;;;;;;;5107927;28;20201;-75
2022/08/25 05:41:14;;;;;;;13.63;9.98;;;;;;;;;;5089527;28;20262;-75
2022/08/25 05:43:42;;;;;;;14.35;9.95;;;;;;;;;;5084217;28;20206;-75
2022/08/25 05:46:10;;;;;;;14.00;9.80;;;;;;;;;;5073335;28;20645;-75
2022/08/25 05:48:38;;;;;;;14.82;10.68;;;;;;;;;;5086326;28;20214;-75
2022/08/25 05:51:07;;;;;;;14.80;10.48;;;;;;;;;;5089967;28;20230;-75
2022/08/25 05:53:35;;;;;;;13.50;9.40;;;;;;;;;;5070082;28;20246;-75
2022/08/25 05:56:03;;;;;;;11.80;9.15;;;;;;;;;;5073498;28;20240;-76
2022/08/25 05:58:31;;;;;;;14.10;10.05;;;;;;;;;;5074737;28;20222;-75
2022/08/25 06:02:39;;;;;;;14.27;9.07;;;;;;;;;;5082474;28;20899;-75
2022/08/25 06:03:46;;;;;;;14.80;9.75;;;;;;;;;;5101021;28;20582;-80
2022/08/25 06:06:14;;;;;;;14.95;9.27;;;;;;;;;;5092309;28;20218;-79
2022/08/25 06:08:43;;;;;;;12.60;9.27;;;;;;;;;;5090870;28;20301;-80
2022/08/25 06:11:11;;;;;;;12.60;9.30;;;;;;;;;;5091267;28;20240;-79
2022/08/25 06:13:39;;;;;;;11.25;9.43;;;;;;;;;;5098944;28;20198;-80
2022/08/25 06:16:07;;;;;;;10.68;9.02;;;;;;;;;;5098908;28;20194;-80
2022/08/25 06:18:34;;;;;;;12.77;9.15;;;;;;;;;;5090488;28;20283;-80
2022/08/25 06:21:07;;;;;;;12.57;8.70;;;;;;;;;;5090145;28;20294;-80
2022/08/25 06:23:34;;;;;;;13.00;8.63;;;;;;;;;;5082445;28;20190;-80
2022/08/25 06:26:03;;;;;;;11.55;8.32;;;;;;;;;;5095219;28;20309;-80
2022/08/25 06:28:30;;;;;;;10.32;8.02;;;;;;;;;;5093659;28;20194;-80
2022/08/25 06:30:59;;;;;;;12.80;7.57;;;;;;;;;;5093460;28;20224;-79
2022/08/25 06:33:26;;;;;;;10.40;7.60;;;;;;;;;;5091589;28;20198;-79
2022/08/25 06:35:54;;;;;;;8.40;7.03;;;;;;;;;;5095020;28;20217;-79
2022/08/25 06:38:21;;;;;;;11.27;6.93;;;;;;;;;;5086015;28;20206;-80
2022/08/25 06:40:49;;;;;;;9.57;6.45;;;;;;;;;;5098760;28;20229;-80
2022/08/25 06:43:18;;;;;;;12.55;6.68;;;;;;;;;;5092236;28;20662;-80
2022/08/25 06:45:45;;;;;;;10.15;6.43;;;;;;;;;;5101950;28;20304;-79
2022/08/25 06:48:12;;;;;;;10.50;6.97;;;;;;;;;;5092658;28;20320;-79
2022/08/25 06:50:40;;;;;;;8.52;6.32;;;;;;;;;;5092222;28;20760;-80
2022/08/25 06:53:08;;;;;;;11.50;6.90;;;;;;;;;;5090961;28;20207;-78
2022/08/25 06:55:35;;;;;;;8.15;6.88;;;;;;;;;;5090825;28;20252;-78
2022/08/25 06:58:03;;;;;;;10.20;7.15;;;;;;;;;;5089270;28;20283;-79
2022/08/25 07:00:32;;;;;;;9.82;7.03;;;;;;;;;;5090153;28;21074;-79
2022/08/25 07:03:00;;;;;;;9.02;7.07;;;;;;;;;;5087658;28;20306;-79
2022/08/25 07:05:28;;;;;;;9.02;6.32;;;;;;;;;;5093891;28;20251;-80
2022/08/25 07:07:55;;;;;;;8.15;7.03;;;;;;;;;;5083584;28;20202;-79
2022/08/25 07:10:22;;;;;;;9.15;6.25;;;;;;;;;;5095714;28;20787;-80
2022/08/25 07:12:50;;;;;;;9.00;6.60;;;;;;;;;;5093648;28;20642;-78
2022/08/25 07:15:17;;;;;;;8.30;6.00;;;;;;;;;;5102968;28;20259;-79
2022/08/25 07:17:46;;;;;;;7.40;5.63;;;;;;;;;;5103084;28;20225;-80
2022/08/25 07:20:14;;;;;;;7.80;5.85;;;;;;;;;;5098212;28;20210;-79
2022/08/25 07:22:42;;;;;;;5.95;4.70;;;;;;;;;;5088141;28;20297;-80
2022/08/25 07:25:10;;;;;;;7.05;5.30;;;;;;;;;;5091674;28;20853;-79
2022/08/25 07:27:38;;;;;;;6.28;4.60;;;;;;;;;;5090046;28;20261;-79
2022/08/25 07:30:07;;;;;;;7.78;4.93;;;;;;;;;;5080379;28;20290;-80
2022/08/25 07:32:34;;;;;;;5.20;3.72;;;;;;;;;;5093930;28;20209;-78
2022/08/25 07:35:17;;;;;;;6.05;4.38;;;;;;;;;;5097190;28;20290;-77
2022/08/25 07:37:46;;;;;;;7.28;4.30;;;;;;;;;;5097782;28;20623;-78
2022/08/25 07:40:14;;;;;;;6.50;3.90;;;;;;;;;;5089388;28;21132;-78
2022/08/25 07:42:42;;;;;;;5.50;3.50;;;;;;;;;;5092590;28;20289;-79
2022/08/25 07:45:10;;;;;;;6.82;3.55;;;;;;;;;;5099747;28;20285;-79
2022/08/25 07:47:37;;;;;;;5.10;3.25;;;;;;;;;;5099521;28;20217;-79
2022/08/25 07:50:08;;;;;;;7.75;3.30;;;;;;;;;;5100284;28;20716;-78
2022/08/25 07:52:35;;;;;;;4.43;2.45;;;;;;;;;;5089826;28;20252;-79
2022/08/25 07:55:03;;;;;;;4.43;2.65;;;;;;;;;;5099578;28;20644;-78
2022/08/25 07:57:30;;;;;;;3.50;2.30;;;;;;;;;;5094038;28;20644;-78
2022/08/25 07:59:58;;;;;;;4.35;2.22;;;;;;;;;;5095078;28;20225;-78
2022/08/25 08:02:26;;;;;;;4.32;2.15;;;;;;;;;;5093761;28;20277;-78
2022/08/25 08:04:53;;;;;;;4.57;1.95;;;;;;;;;;5093234;28;20226;-78
2022/08/25 08:07:24;;;;;;;4.18;1.60;;;;;;;;;;5098414;28;20253;-78
2022/08/25 08:09:51;;;;;;;3.88;1.67;;;;;;;;;;5101579;28;20284;-79
2022/08/25 08:12:19;;;;;;;3.30;1.50;;;;;;;;;;5099385;28;20198;-78
2022/08/25 08:14:47;;;;;;;2.05;1.33;;;;;;;;;;5093365;28;20202;-78
2022/08/25 08:17:15;;;;;;;2.38;1.10;;;;;;;;;;5098803;28;20194;-78
2022/08/25 08:19:42;;;;;;;2.63;1.10;;;;;;;;;;5095193;28;20251;-79
2022/08/25 08:22:10;;;;;;;3.72;1.20;;;;;;;;;;5093176;28;20235;-79
2022/08/25 08:24:38;;;;;;;3.90;1.42;;;;;;;;;;5098537;28;20194;-80
2022/08/25 08:27:07;;;;;;;2.05;1.30;;;;;;;;;;5095059;28;20313;-79
2022/08/25 08:29:35;;;;;;;1.88;1.00;;;;;;;;;;5093165;28;20197;-79
2022/08/25 08:32:02;;;;;;;2.03;1.00;;;;;;;;;;5096487;28;20229;-79
2022/08/25 08:34:30;;;;;;;2.13;1.00;;;;;;;;;;5091288;28;20202;-79
2022/08/25 08:36:58;;;;;;;1.67;1.13;;;;;;;;;;5102089;28;20198;-78
2022/08/25 08:39:25;;;;;;;3.38;1.20;;;;;;;;;;5095809;28;20289;-78
2022/08/25 08:42:17;;;;;;;2.13;1.10;;;;;;;;;;5102420;28;20206;-78
2022/08/25 08:45:11;;;;;;;3.03;1.20;;;;;;;;;;5086092;28;20228;-78
2022/08/25 08:47:49;;;;;;;4.25;1.20;;;;;;;;;;5012314;28;20655;-79
2022/08/25 08:50:22;;;;;;;3.60;1.30;;;;;;;;;;5006430;28;20212;-78
2022/08/25 08:52:53;;;;;;;2.00;0.98;;;;;;;;;;5021581;28;20294;-79
2022/08/25 08:55:29;;;;;;;3.05;1.20;;;;;;;;;;5011920;28;20688;-79
2022/08/25 08:57:58;;;;;;;4.60;1.30;;;;;;;;;;5011452;28;20289;-79
2022/08/25 09:00:26;;;;;;;2.35;1.08;;;;;;;;;;5009599;28;20790;-78
2022/08/25 09:02:57;;;;;;;2.55;1.17;;;;;;;;;;5019619;28;20640;-79
2022/08/25 09:05:27;;;;;;;1.73;1.10;;;;;;;;;;5018778;28;20196;-79
2022/08/25 09:07:56;;;;;;;1.67;1.10;;;;;;;;;;5017510;28;20217;-79
2022/08/25 09:10:25;;;;;;;1.80;1.10;;;;;;;;;;5009621;28;20202;-78
2022/08/25 09:12:58;;;;;;;2.70;1.20;;;;;;;;;;5009811;28;20232;-79
2022/08/25 09:16:53;;;;;;;2.65;1.20;;;;;;;;;;5005172;28;20295;-79
2022/08/25 09:18:22;;;;;;;2.95;1.20;;;;;;;;;;5019729;28;20211;-78
2022/08/25 09:20:56;;;;;;;3.20;0.95;;;;;;;;;;5012751;28;20205;-79
2022/08/25 09:23:30;;;;;;;1.23;0.93;;;;;;;;;;5054452;28;20197;-78
2022/08/25 09:26:01;;;;;;;1.55;1.02;;;;;;;;;;5104305;28;20280;-79
2022/08/25 09:28:30;;;;;;;2.15;1.00;;;;;;;;;;5097285;28;20298;-77
2022/08/25 09:31:02;;;;;;;3.40;1.15;;;;;;;;;;5096383;28;20674;-78
2022/08/25 09:33:31;;;;;;;1.30;1.05;;;;;;;;;;5095753;28;20195;-78
2022/08/25 09:35:58;;;;;;;1.05;0.93;;;;;;;;;;5096446;28;20201;-77
2022/08/25 09:38:26;;;;;;;1.67;1.08;;;;;;;;;;5092838;28;20218;-77
2022/08/25 09:40:55;;;;;;;2.05;0.80;;;;;;;;;;5096135;28;20313;-78
2022/08/25 09:43:24;;;;;;;2.75;0.90;;;;;;;;;;5107515;28;20281;-79
2022/08/25 09:45:56;;;;;;;1.60;0.70;;;;;;;;;;5095568;28;20229;-79
2022/08/25 09:48:26;;;;;;;1.48;0.80;;;;;;;;;;5100868;28;20305;-80
2022/08/25 09:50:55;;;;;;;2.13;1.23;;;;;;;;;;5100366;27;20275;-79
2022/08/25 09:53:23;;;;;;;1.58;1.13;;;;;;;;;;5106319;28;20658;-79
2022/08/25 09:55:54;;;;;;;2.65;1.20;;;;;;;;;;5102974;28;20202;-79
2022/08/25 09:58:24;;;;;;;1.75;1.33;;;;;;;;;;5094348;28;20214;-80
2022/08/25 10:01:06;;;;;;;1.98;1.40;;;;;;;;;;5095490;28;20196;-79
2022/08/25 10:03:35;;;;;;;1.98;1.30;;;;;;;;;;5098979;28;20633;-78
2022/08/25 10:06:05;;;;;;;3.60;1.40;;;;;;;;;;5094113;28;20258;-79
2022/08/25 10:08:34;;;;;;;1.75;1.30;;;;;;;;;;5095110;28;20322;-79
2022/08/25 10:11:03;;;;;;;2.13;1.15;;;;;;;;;;5101961;28;20237;-79
2022/08/25 10:13:35;;;;;;;2.15;1.10;;;;;;;;;;5099238;28;20197;-79
2022/08/25 10:16:07;;;;;;;1.10;1.00;;;;;;;;;;5100700;28;20236;-79
2022/08/25 10:18:36;;;;;;;1.17;1.00;;;;;;;;;;5100192;28;20285;-79
2022/08/25 10:21:04;;;;;;;1.38;0.90;;;;;;;;;;5098647;28;20233;-79
2022/08/25 10:23:33;;;;;;;1.85;1.10;;;;;;;;;;5095130;28;20274;-79
2022/08/25 10:26:03;;;;;;;1.63;1.00;;;;;;;;;;5094864;28;20198;-79
2022/08/25 10:28:34;;;;;;;2.78;1.10;;;;;;;;;;5091561;28;20724;-79
2022/08/25 10:31:06;;;;;;;2.00;0.90;;;;;;;;;;5100450;28;21493;-78
2022/08/25 10:33:39;;;;;;;1.20;0.98;;;;;;;;;;5103689;28;20218;-78
2022/08/25 10:36:11;;;;;;;2.50;1.05;;;;;;;;;;5101328;28;20225;-77
2022/08/25 10:38:40;;;;;;;3.60;1.20;;;;;;;;;;5098704;28;20206;-78
2022/08/25 10:41:13;;;;;;;1.08;0.98;;;;;;;;;;5092657;28;20369;-78
2022/08/25 10:43:44;;;;;;;1.50;0.90;;;;;;;;;;5096576;28;20221;-78
2022/08/25 10:46:14;;;;;;;1.63;1.30;;;;;;;;;;5094659;28;20238;-78
2022/08/25 10:48:48;;;;;;;1.65;1.55;;;;;;;;;;5090135;28;20660;-78
2022/08/25 10:51:27;;;;;;;1.15;1.05;;;;;;;;;;5091537;28;20259;-78
2022/08/25 10:53:57;;;;;;;3.38;1.35;;;;;;;;;;5093956;28;20229;-77
2022/08/25 10:56:28;;;;;;;2.38;1.70;;;;;;;;;;5086785;28;20372;-78
2022/08/25 10:59:03;;;;;;;3.95;1.75;;;;;;;;;;5091785;28;20252;-78
2022/08/25 11:01:36;;;;;;;1.75;1.60;;;;;;;;;;5087665;28;20609;-78
2022/08/25 11:04:08;;;;;;;2.78;1.40;;;;;;;;;;5099094;28;20205;-78
2022/08/25 11:06:38;;;;;;;1.20;1.10;;;;;;;;;;5089072;28;20674;-79
2022/08/25 11:09:07;;;;;;;1.88;1.60;;;;;;;;;;5091434;28;20218;-79
2022/08/25 11:11:37;;;;;;;1.27;1.17;;;;;;;;;;5102199;28;20230;-79
2022/08/25 11:14:07;;;;;;;1.20;1.10;;;;;;;;;;5088949;28;20642;-78
2022/08/25 11:16:38;;;;;;;1.67;1.20;;;;;;;;;;5097753;28;20356;-79
2022/08/25 11:19:12;;;;;;;1.20;1.08;;;;;;;;;;5091958;28;20199;-78
2022/08/25 11:21:42;;;;;;;1.73;1.15;;;;;;;;;;5096879;28;20198;-78
2022/08/25 11:24:15;;;;;;;1.70;1.00;;;;;;;;;;5087726;28;20199;-79
2022/08/25 11:26:45;;;;;;;1.08;0.98;;;;;;;;;;5089880;28;20230;-79
2022/08/25 11:29:15;;;;;;;1.30;1.15;;;;;;;;;;5086104;28;20897;-79
2022/08/25 11:31:43;;;;;;;0.98;0.90;;;;;;;;;;5090572;28;20202;-79
2022/08/25 11:34:14;;;;;;;1.77;0.90;;;;;;;;;;5088347;28;20251;-79
2022/08/25 11:36:43;;;;;;;0.85;0.82;;;;;;;;;;5098098;28;21581;-78
2022/08/25 11:39:16;;;;;;;3.42;0.63;;;;;;;;;;5096017;28;20198;-79
2022/08/25 11:41:51;;;;;;;1.42;0.90;;;;;;;;;;5089030;28;20233;-79
2022/08/25 11:44:38;;;;;;;0.88;0.80;;;;;;;;;;5088988;28;20206;-78
2022/08/25 11:47:14;;;;;;;2.38;0.90;;;;;;;;;;5104226;28;20232;-78
2022/08/25 11:49:50;;;;;;;2.47;0.70;;;;;;;;;;5096810;28;20201;-78
2022/08/25 11:52:36;;;;;;;1.42;0.80;;;;;;;;;;5091080;28;20293;-78
2022/08/25 11:55:06;;;;;;;0.77;0.60;;;;;;;;;;5081843;28;20285;-78
2022/08/25 11:57:34;;;;;;;0.65;0.63;;;;;;;;;;5090524;28;20269;-78
2022/08/25 12:00:11;;;;;;;0.95;0.70;;;;;;;;;;5098811;28;20289;-78
2022/08/25 12:02:39;;;;;;;1.23;0.90;;;;;;;;;;5092215;28;20210;-78
2022/08/25 12:05:10;;;;;;;2.15;0.60;;;;;;;;;;5090327;28;20285;-78
2022/08/25 12:10:51;;;;;;;1.52;0.63;;;;;;;;;;5087776;28;20198;-77
2022/08/25 12:13:39;;;;;;;0.73;0.70;;;;;;;;;;5089423;28;20198;-78
2022/08/25 12:16:07;;;;;;;0.70;0.50;;;;;;;;;;5091964;28;20239;-77
2022/08/25 12:18:45;;;;;;;0.50;0.50;;;;;;;;;;5090758;28;20623;-79
2022/08/25 12:21:29;;;;;;;0.70;0.40;;;;;;;;;;5092833;28;20190;-78
2022/08/25 12:24:08;;;;;;;0.93;0.60;;;;;;;;;;5085223;28;20289;-79
2022/08/25 12:26:40;;;;;;;0.52;0.45;;;;;;;;;;5087695;28;20237;-79
2022/08/25 12:29:10;;;;;;;0.93;0.40;;;;;;;;;;5089019;28;20297;-79
2022/08/25 12:31:47;;;;;;;0.63;0.40;;;;;;;;;;5088361;28;20713;-79
2022/08/25 12:34:22;;;;;;;1.48;0.50;;;;;;;;;;5090181;28;20206;-78
2022/08/25 12:36:58;;;;;;;1.60;0.52;;;;;;;;;;5086869;28;20206;-77
2022/08/25 12:39:30;;;;;;;1.48;0.60;;;;;;;;;;5087865;28;20190;-78
2022/08/25 12:41:59;;;;;;;1.15;0.57;;;;;;;;;;5088544;28;20198;-77
2022/08/25 12:44:40;;;;;;;2.92;0.80;;;;;;;;;;5090846;28;20199;-78
2022/08/25 12:47:12;;;;;;;0.93;0.50;;;;;;;;;;5094266;28;20287;-79
2022/08/25 12:49:39;;;;;;;2.40;0.50;;;;;;;;;;5098831;28;20255;-79
2022/08/25 12:52:11;;;;;;;1.02;0.50;;;;;;;;;;5094941;28;20271;-78
2022/08/25 12:54:42;;;;;;;0.93;0.40;;;;;;;;;;5100277;28;20198;-79
2022/08/25 12:57:21;;;;;;;0.68;0.50;;;;;;;;;;5094187;28;20214;-79
2022/08/25 12:59:50;;;;;;;0.70;0.50;;;;;;;;;;5090491;28;20241;-79
2022/08/25 13:02:40;;;;;;;0.63;0.30;;;;;;;;;;5092497;28;20202;-79
2022/08/25 13:05:32;;;;;;;3.70;0.45;;;;;;;;;;5097323;28;20290;-79
2022/08/25 13:08:09;;;;;;;0.60;0.30;;;;;;;;;;5079471;28;20271;-79
2022/08/25 13:10:44;;;;;;;0.93;0.40;;;;;;;;;;5092627;28;20198;-80
2022/08/25 13:13:16;;;;;;;0.40;0.28;;;;;;;;;;5091864;28;20677;-79
2022/08/25 13:15:45;;;;;;;1.33;0.40;;;;;;;;;;5100654;28;20204;-79
2022/08/25 13:18:23;;;;;;;1.98;0.43;;;;;;;;;;5094019;28;20259;-79
2022/08/25 13:20:51;;;;;;;1.55;0.40;;;;;;;;;;5087953;28;20202;-79
2022/08/25 13:23:24;;;;;;;1.42;0.55;;;;;;;;;;5096556;28;20198;-79
2022/08/25 13:25:52;;;;;;;1.20;0.50;;;;;;;;;;5095297;28;20199;-79
2022/08/25 13:28:23;;;;;;;0.75;0.40;;;;;;;;;;5095417;28;20218;-79
2022/08/25 13:30:56;;;;;;;2.00;0.40;;;;;;;;;;5097644;28;20222;-78
2022/08/25 13:33:24;;;;;;;1.27;0.65;;;;;;;;;;5099620;28;20233;-79
2022/08/25 13:37:26;;;;;;;1.20;0.60;;;;;;;;;;5098515;28;20580;-78
2022/08/25 13:38:41;;;;;;;3.63;0.90;;;;;;;;;;5098068;28;20206;-79
2022/08/25 13:41:09;;;;;;;2.70;0.90;;;;;;;;;;5094903;28;20232;-78
2022/08/25 13:43:37;;;;;;;2.45;0.95;;;;;;;;;;5096545;28;20285;-78
2022/08/25 13:46:05;;;;;;;2.67;1.10;;;;;;;;;;5089037;28;20226;-78
2022/08/25 13:48:34;;;;;;;1.73;1.10;;;;;;;;;;5101239;28;20701;-78
2022/08/25 13:51:08;;;;;;;1.88;1.00;;;;;;;;;;5090457;28;20205;-79
2022/08/25 13:53:35;;;;;;;2.25;0.95;;;;;;;;;;5090535;28;20218;-79
2022/08/25 13:56:06;;;;;;;2.42;1.00;;;;;;;;;;5098375;28;20232;-79
2022/08/25 13:58:35;;;;;;;1.45;1.00;;;;;;;;;;5094021;28;20301;-78
2022/08/25 14:01:04;;;;;;;1.30;0.95;;;;;;;;;;5091346;28;20660;-79
2022/08/25 14:03:32;;;;;;;2.65;0.90;;;;;;;;;;5092527;28;20561;-78
2022/08/25 14:06:07;;;;;;;2.88;1.00;;;;;;;;;;5090454;28;20661;-78
2022/08/25 14:08:35;;;;;;;2.58;1.05;;;;;;;;;;5090224;28;20245;-78
2022/08/25 14:11:07;;;;;;;1.92;0.90;;;;;;;;;;5099091;28;20635;-79
2022/08/25 14:13:35;;;;;;;2.10;1.10;;;;;;;;;;5090637;28;20194;-78
2022/08/25 14:16:09;;;;;;;2.97;0.90;;;;;;;;;;5097211;28;20194;-78
2022/08/25 14:18:40;;;;;;;2.03;0.85;;;;;;;;;;5089419;28;20226;-79
2022/08/25 14:21:10;;;;;;;1.85;0.73;;;;;;;;;;5092396;28;20253;-78
2022/08/25 14:23:38;;;;;;;2.88;1.00;;;;;;;;;;5097772;28;20641;-78
2022/08/25 14:26:10;;;;;;;2.03;1.00;;;;;;;;;;5093408;28;20281;-78
2022/08/25 14:28:38;;;;;;;3.42;1.00;;;;;;;;;;5090536;28;20301;-78
2022/08/25 14:31:08;;;;;;;1.30;0.90;;;;;;;;;;5095019;28;20277;-78
2022/08/25 14:33:38;;;;;;;1.85;1.00;;;;;;;;;;5095300;28;20258;-78
2022/08/25 14:36:05;;;;;;;1.45;1.00;;;;;;;;;;5089779;28;20281;-78
2022/08/25 14:38:33;;;;;;;1.85;1.13;;;;;;;;;;5087179;28;20552;-78
2022/08/25 14:41:00;;;;;;;2.17;1.38;;;;;;;;;;5092901;28;20229;-78
2022/08/25 14:43:29;;;;;;;2.85;1.20;;;;;;;;;;5097220;28;20237;-78
2022/08/25 14:45:56;;;;;;;1.77;1.20;;;;;;;;;;5089307;28;20285;-78
2022/08/25 14:48:25;;;;;;;1.50;1.05;;;;;;;;;;5095589;28;20309;-78
2022/08/25 14:50:53;;;;;;;1.30;1.05;;;;;;;;;;5099257;28;20197;-78
2022/08/25 14:53:21;;;;;;;1.88;1.00;;;;;;;;;;5094165;28;20237;-78
2022/08/25 14:55:52;;;;;;;2.28;1.10;;;;;;;;;;5097891;28;20224;-78
2022/08/25 14:58:19;;;;;;;1.85;1.13;;;;;;;;;;5092923;28;20264;-78